sensor_id;sensor_type;location;lat;lon;timestamp;temperature;humidity
4693;DHT22;11710;48.024;16.296;2023-04-03T06:01:53;5.10;95.80
4693;DHT22;11710;48.024;16.296;2023-04-03T06:04:20;5.10;95.80
4693;DHT22;11710;48.024;16.296;2023-04-03T06:06:49;5.20;95.70
4693;DHT22;11710;48.024;16.296;2023-04-03T06:09:18;5.20;95.70
4693;DHT22;11710;48.024;16.296;2023-04-03T06:11:45;5.20;95.50
4693;DHT22;11710;48.024;16.296;2023-04-03T06:14:13;5.20;95.50
4693;DHT22;11710;48.024;16.296;2023-04-03T06:16:40;5.20;95.40
4693;DHT22;11710;48.024;16.296;2023-04-03T06:19:09;5.20;95.50
4693;DHT22;11710;48.024;16.296;2023-04-03T06:21:36;5.20;95.60
4693;DHT22;11710;48.024;16.296;2023-04-03T06:24:04;5.20;95.20
4693;DHT22;11710;48.024;16.296;2023-04-03T06:26:31;5.30;95.40
4693;DHT22;11710;48.024;16.296;2023-04-03T06:28:58;5.30;95.20
4693;DHT22;11710;48.024;16.296;2023-04-03T06:31:26;5.30;95.20
4693;DHT22;11710;48.024;16.296;2023-04-03T06:33:53;5.30;95.30
4693;DHT22;11710;48.024;16.296;2023-04-03T06:36:22;5.40;95.30
4693;DHT22;11710;48.024;16.296;2023-04-03T06:38:50;5.40;95.00
4693;DHT22;11710;48.024;16.296;2023-04-03T06:41:17;5.40;94.90
4693;DHT22;11710;48.024;16.296;2023-04-03T06:43:45;5.50;95.00
4693;DHT22;11710;48.024;16.296;2023-04-03T06:46:15;5.50;95.10
4693;DHT22;11710;48.024;16.296;2023-04-03T06:48:44;5.50;94.80
4693;DHT22;11710;48.024;16.296;2023-04-03T06:51:17;5.60;94.80
4693;DHT22;11710;48.024;16.296;2023-04-03T06:53:47;5.50;94.50
4693;DHT22;11710;48.024;16.296;2023-04-03T06:56:15;5.40;94.50
4693;DHT22;11710;48.024;16.296;2023-04-03T06:58:42;5.30;94.60
4693;DHT22;11710;48.024;16.296;2023-04-03T07:01:11;5.40;94.90
4693;DHT22;11710;48.024;16.296;2023-04-03T07:03:38;5.40;95.00
4693;DHT22;11710;48.024;16.296;2023-04-03T07:06:06;5.40;95.10
4693;DHT22;11710;48.024;16.296;2023-04-03T07:08:35;5.50;94.70
4693;DHT22;11710;48.024;16.296;2023-04-03T07:11:04;5.50;94.80
4693;DHT22;11710;48.024;16.296;2023-04-03T07:13:31;5.50;94.70
4693;DHT22;11710;48.024;16.296;2023-04-03T07:15:58;5.50;94.60
4693;DHT22;11710;48.024;16.296;2023-04-03T07:18:26;5.50;94.80
4693;DHT22;11710;48.024;16.296;2023-04-03T07:20:53;5.40;94.60
4693;DHT22;11710;48.024;16.296;2023-04-03T07:23:22;5.50;94.90
4693;DHT22;11710;48.024;16.296;2023-04-03T07:25:51;5.50;94.40
4693;DHT22;11710;48.024;16.296;2023-04-03T07:28:21;5.60;94.50
4693;DHT22;11710;48.024;16.296;2023-04-03T07:30:50;5.70;94.50
4693;DHT22;11710;48.024;16.296;2023-04-03T07:33:21;5.70;94.00
4693;DHT22;11710;48.024;16.296;2023-04-03T07:35:48;5.80;93.80
4693;DHT22;11710;48.024;16.296;2023-04-03T07:38:15;5.80;93.90
4693;DHT22;11710;48.024;16.296;2023-04-03T07:40:46;6.00;94.20
4693;DHT22;11710;48.024;16.296;2023-04-03T07:43:14;6.00;93.50
4693;DHT22;11710;48.024;16.296;2023-04-03T07:45:43;6.00;92.90
4693;DHT22;11710;48.024;16.296;2023-04-03T07:48:12;6.10;93.20
4693;DHT22;11710;48.024;16.296;2023-04-03T07:50:40;6.20;92.90
4693;DHT22;11710;48.024;16.296;2023-04-03T07:53:08;6.40;92.90
4693;DHT22;11710;48.024;16.296;2023-04-03T07:55:36;6.40;92.50
4693;DHT22;11710;48.024;16.296;2023-04-03T07:58:08;6.40;92.10
4693;DHT22;11710;48.024;16.296;2023-04-03T08:00:39;6.50;92.00
4693;DHT22;11710;48.024;16.296;2023-04-03T08:03:11;6.60;91.90
4693;DHT22;11710;48.024;16.296;2023-04-03T08:05:40;6.70;91.20
4693;DHT22;11710;48.024;16.296;2023-04-03T08:08:08;6.70;90.90
4693;DHT22;11710;48.024;16.296;2023-04-03T08:10:36;6.90;91.40
4693;DHT22;11710;48.024;16.296;2023-04-03T08:13:04;7.10;90.60
4693;DHT22;11710;48.024;16.296;2023-04-03T08:15:32;7.20;90.60
4693;DHT22;11710;48.024;16.296;2023-04-03T08:17:59;7.50;90.50
4693;DHT22;11710;48.024;16.296;2023-04-03T08:20:28;7.60;90.40
4693;DHT22;11710;48.024;16.296;2023-04-03T08:22:56;7.70;89.50
4693;DHT22;11710;48.024;16.296;2023-04-03T08:25:23;7.70;89.10
4693;DHT22;11710;48.024;16.296;2023-04-03T08:27:50;7.80;90.00
4693;DHT22;11710;48.024;16.296;2023-04-03T08:30:17;7.80;88.50
4693;DHT22;11710;48.024;16.296;2023-04-03T08:32:45;7.50;87.80
4693;DHT22;11710;48.024;16.296;2023-04-03T08:35:13;7.30;88.80
4693;DHT22;11710;48.024;16.296;2023-04-03T08:37:42;7.20;88.80
4693;DHT22;11710;48.024;16.296;2023-04-03T08:40:15;7.30;87.70
4693;DHT22;11710;48.024;16.296;2023-04-03T08:42:53;7.30;86.10
4693;DHT22;11710;48.024;16.296;2023-04-03T08:45:31;7.40;84.50
4693;DHT22;11710;48.024;16.296;2023-04-03T08:48:05;7.50;84.70
4693;DHT22;11710;48.024;16.296;2023-04-03T08:50:38;7.50;83.40
4693;DHT22;11710;48.024;16.296;2023-04-03T08:53:14;7.40;81.90
4693;DHT22;11710;48.024;16.296;2023-04-03T08:55:44;7.30;82.20
4693;DHT22;11710;48.024;16.296;2023-04-03T08:58:14;7.30;81.70
4693;DHT22;11710;48.024;16.296;2023-04-03T09:00:46;7.10;79.90
4693;DHT22;11710;48.024;16.296;2023-04-03T09:03:15;6.90;80.10
4693;DHT22;11710;48.024;16.296;2023-04-03T09:05:48;6.80;80.20
4693;DHT22;11710;48.024;16.296;2023-04-03T09:08:23;6.70;80.60
4693;DHT22;11710;48.024;16.296;2023-04-03T09:11:04;6.70;80.40
4693;DHT22;11710;48.024;16.296;2023-04-03T09:13:39;6.70;80.70
4693;DHT22;11710;48.024;16.296;2023-04-03T09:16:20;6.80;80.60
4693;DHT22;11710;48.024;16.296;2023-04-03T09:18:57;6.90;79.10
4693;DHT22;11710;48.024;16.296;2023-04-03T09:21:34;6.90;78.40
4693;DHT22;11710;48.024;16.296;2023-04-03T09:24:06;6.80;78.00
4693;DHT22;11710;48.024;16.296;2023-04-03T09:26:39;7.00;78.90
4693;DHT22;11710;48.024;16.296;2023-04-03T09:29:15;7.00;77.10
4693;DHT22;11710;48.024;16.296;2023-04-03T09:31:46;7.20;76.70
4693;DHT22;11710;48.024;16.296;2023-04-03T09:34:20;7.10;75.60
4693;DHT22;11710;48.024;16.296;2023-04-03T09:36:49;6.90;75.40
4693;DHT22;11710;48.024;16.296;2023-04-03T09:39:20;6.70;76.20
4693;DHT22;11710;48.024;16.296;2023-04-03T09:41:59;6.90;77.10
4693;DHT22;11710;48.024;16.296;2023-04-03T09:44:29;7.00;77.40
4693;DHT22;11710;48.024;16.296;2023-04-03T09:46:57;7.80;78.20
4693;DHT22;11710;48.024;16.296;2023-04-03T09:49:25;9.00;74.40
4693;DHT22;11710;48.024;16.296;2023-04-03T09:51:53;8.90;72.90
4693;DHT22;11710;48.024;16.296;2023-04-03T09:54:37;8.60;74.30
4693;DHT22;11710;48.024;16.296;2023-04-03T09:57:09;8.30;73.30
4693;DHT22;11710;48.024;16.296;2023-04-03T09:59:45;8.00;74.10
4693;DHT22;11710;48.024;16.296;2023-04-03T10:02:35;7.70;74.10
4693;DHT22;11710;48.024;16.296;2023-04-03T10:05:04;7.40;72.70
4693;DHT22;11710;48.024;16.296;2023-04-03T10:07:34;7.20;71.80
4693;DHT22;11710;48.024;16.296;2023-04-03T10:10:18;6.90;71.00
4693;DHT22;11710;48.024;16.296;2023-04-03T10:12:45;6.70;71.10
4693;DHT22;11710;48.024;16.296;2023-04-03T10:15:15;6.70;71.90
4693;DHT22;11710;48.024;16.296;2023-04-03T10:17:53;6.90;72.70
4693;DHT22;11710;48.024;16.296;2023-04-03T10:20:30;7.00;72.80
4693;DHT22;11710;48.024;16.296;2023-04-03T10:23:15;7.20;72.50
4693;DHT22;11710;48.024;16.296;2023-04-03T10:25:55;7.30;71.80
4693;DHT22;11710;48.024;16.296;2023-04-03T10:28:31;7.50;71.00
4693;DHT22;11710;48.024;16.296;2023-04-03T10:31:05;7.60;71.60
4693;DHT22;11710;48.024;16.296;2023-04-03T10:33:47;7.60;72.80
4693;DHT22;11710;48.024;16.296;2023-04-03T10:36:27;7.50;73.40
4693;DHT22;11710;48.024;16.296;2023-04-03T10:39:02;7.40;73.20
4693;DHT22;11710;48.024;16.296;2023-04-03T10:41:41;7.30;73.10
4693;DHT22;11710;48.024;16.296;2023-04-03T10:44:20;7.40;73.70
4693;DHT22;11710;48.024;16.296;2023-04-03T10:46:53;7.40;74.30
4693;DHT22;11710;48.024;16.296;2023-04-03T10:49:32;7.60;74.40
4693;DHT22;11710;48.024;16.296;2023-04-03T10:52:09;7.70;74.20
4693;DHT22;11710;48.024;16.296;2023-04-03T10:54:41;8.00;74.30
4693;DHT22;11710;48.024;16.296;2023-04-03T10:57:12;8.30;72.50
4693;DHT22;11710;48.024;16.296;2023-04-03T10:59:43;8.50;71.50
4693;DHT22;11710;48.024;16.296;2023-04-03T11:02:17;8.10;70.10
4693;DHT22;11710;48.024;16.296;2023-04-03T11:04:55;7.80;70.90
4693;DHT22;11710;48.024;16.296;2023-04-03T11:07:26;7.50;71.60
4693;DHT22;11710;48.024;16.296;2023-04-03T11:10:02;7.50;72.20
4693;DHT22;11710;48.024;16.296;2023-04-03T11:12:40;7.80;73.40
4693;DHT22;11710;48.024;16.296;2023-04-03T11:15:13;7.90;72.40
4693;DHT22;11710;48.024;16.296;2023-04-03T11:17:46;8.10;71.60
4693;DHT22;11710;48.024;16.296;2023-04-03T11:20:19;8.40;71.60
4693;DHT22;11710;48.024;16.296;2023-04-03T11:22:50;8.40;69.80
4693;DHT22;11710;48.024;16.296;2023-04-03T11:25:21;8.50;70.50
4693;DHT22;11710;48.024;16.296;2023-04-03T11:27:54;8.50;69.30
4693;DHT22;11710;48.024;16.296;2023-04-03T11:30:27;8.40;68.30
4693;DHT22;11710;48.024;16.296;2023-04-03T11:33:10;8.50;66.10
4693;DHT22;11710;48.024;16.296;2023-04-03T11:35:44;8.40;66.40
4693;DHT22;11710;48.024;16.296;2023-04-03T11:38:19;8.40;66.80
4693;DHT22;11710;48.024;16.296;2023-04-03T11:40:49;8.30;65.10
4693;DHT22;11710;48.024;16.296;2023-04-03T11:43:25;8.30;65.50
4693;DHT22;11710;48.024;16.296;2023-04-03T11:45:56;8.30;64.30
4693;DHT22;11710;48.024;16.296;2023-04-03T11:48:50;8.20;65.00
4693;DHT22;11710;48.024;16.296;2023-04-03T11:51:46;8.30;65.90
4693;DHT22;11710;48.024;16.296;2023-04-03T11:54:42;8.50;66.40
4693;DHT22;11710;48.024;16.296;2023-04-03T11:57:45;8.50;65.00
4693;DHT22;11710;48.024;16.296;2023-04-03T12:06:51;8.00;62.70
4693;DHT22;11710;48.024;16.296;2023-04-03T12:09:33;7.80;63.20
4693;DHT22;11710;48.024;16.296;2023-04-03T12:12:23;7.90;62.10
4693;DHT22;11710;48.024;16.296;2023-04-03T12:14:52;7.90;62.60
4693;DHT22;11710;48.024;16.296;2023-04-03T12:17:25;8.00;62.20
4693;DHT22;11710;48.024;16.296;2023-04-03T12:19:54;8.00;63.10
4693;DHT22;11710;48.024;16.296;2023-04-03T12:22:22;8.00;61.80
4693;DHT22;11710;48.024;16.296;2023-04-03T12:24:51;7.80;59.80
4693;DHT22;11710;48.024;16.296;2023-04-03T12:27:33;7.60;60.00
4693;DHT22;11710;48.024;16.296;2023-04-03T12:30:15;7.40;60.10
4693;DHT22;11710;48.024;16.296;2023-04-03T12:32:56;7.30;61.50
4693;DHT22;11710;48.024;16.296;2023-04-03T12:35:29;7.40;62.00
4693;DHT22;11710;48.024;16.296;2023-04-03T12:38:31;7.50;62.80
4693;DHT22;11710;48.024;16.296;2023-04-03T12:41:19;7.40;61.80
4693;DHT22;11710;48.024;16.296;2023-04-03T12:43:59;7.30;62.50
4693;DHT22;11710;48.024;16.296;2023-04-03T12:46:37;7.20;63.60
4693;DHT22;11710;48.024;16.296;2023-04-03T12:49:20;7.20;63.00
4693;DHT22;11710;48.024;16.296;2023-04-03T12:51:50;7.10;63.30
4693;DHT22;11710;48.024;16.296;2023-04-03T12:54:22;7.10;62.90
4693;DHT22;11710;48.024;16.296;2023-04-03T12:56:50;7.00;62.60
4693;DHT22;11710;48.024;16.296;2023-04-03T12:59:21;7.00;63.40
4693;DHT22;11710;48.024;16.296;2023-04-03T13:01:56;7.10;63.60
4693;DHT22;11710;48.024;16.296;2023-04-03T13:04:24;7.00;62.20
4693;DHT22;11710;48.024;16.296;2023-04-03T13:06:52;7.00;62.30
4693;DHT22;11710;48.024;16.296;2023-04-03T13:09:23;7.00;63.10
4693;DHT22;11710;48.024;16.296;2023-04-03T13:11:58;6.90;63.20
4693;DHT22;11710;48.024;16.296;2023-04-03T13:14:28;6.80;62.70
4693;DHT22;11710;48.024;16.296;2023-04-03T13:16:58;6.70;62.60
4693;DHT22;11710;48.024;16.296;2023-04-03T13:19:27;6.70;63.00
4693;DHT22;11710;48.024;16.296;2023-04-03T13:21:58;6.70;62.50
4693;DHT22;11710;48.024;16.296;2023-04-03T13:24:28;6.60;61.90
4693;DHT22;11710;48.024;16.296;2023-04-03T13:26:57;6.70;61.50
4693;DHT22;11710;48.024;16.296;2023-04-03T13:29:27;6.80;60.90
4693;DHT22;11710;48.024;16.296;2023-04-03T13:31:55;6.90;62.00
4693;DHT22;11710;48.024;16.296;2023-04-03T13:34:26;7.10;62.30
4693;DHT22;11710;48.024;16.296;2023-04-03T13:36:57;7.20;61.50
4693;DHT22;11710;48.024;16.296;2023-04-03T13:39:29;7.30;59.80
4693;DHT22;11710;48.024;16.296;2023-04-03T13:41:59;7.30;59.90
4693;DHT22;11710;48.024;16.296;2023-04-03T13:44:32;7.20;57.20
4693;DHT22;11710;48.024;16.296;2023-04-03T13:47:14;7.20;57.70
4693;DHT22;11710;48.024;16.296;2023-04-03T13:49:43;7.30;59.50
4693;DHT22;11710;48.024;16.296;2023-04-03T13:52:26;7.50;60.20
4693;DHT22;11710;48.024;16.296;2023-04-03T13:54:58;7.60;60.10
4693;DHT22;11710;48.024;16.296;2023-04-03T13:57:27;7.60;60.10
4693;DHT22;11710;48.024;16.296;2023-04-03T13:59:56;7.40;58.20
4693;DHT22;11710;48.024;16.296;2023-04-03T14:02:31;7.20;58.10
4693;DHT22;11710;48.024;16.296;2023-04-03T14:05:00;7.00;58.70
4693;DHT22;11710;48.024;16.296;2023-04-03T14:07:29;7.10;59.70
4693;DHT22;11710;48.024;16.296;2023-04-03T14:09:59;7.30;60.00
4693;DHT22;11710;48.024;16.296;2023-04-03T14:12:29;7.50;59.00
4693;DHT22;11710;48.024;16.296;2023-04-03T14:14:58;7.50;58.50
4693;DHT22;11710;48.024;16.296;2023-04-03T14:17:28;7.30;58.30
4693;DHT22;11710;48.024;16.296;2023-04-03T14:19:56;7.20;59.40
4693;DHT22;11710;48.024;16.296;2023-04-03T14:22:25;7.30;60.40
4693;DHT22;11710;48.024;16.296;2023-04-03T14:24:54;7.50;60.30
4693;DHT22;11710;48.024;16.296;2023-04-03T14:27:26;7.50;60.20
4693;DHT22;11710;48.024;16.296;2023-04-03T14:29:56;7.50;60.70
4693;DHT22;11710;48.024;16.296;2023-04-03T14:32:24;7.30;60.40
4693;DHT22;11710;48.024;16.296;2023-04-03T14:34:52;7.20;61.30
4693;DHT22;11710;48.024;16.296;2023-04-03T14:37:22;7.20;62.60
4693;DHT22;11710;48.024;16.296;2023-04-03T14:39:52;7.20;62.10
4693;DHT22;11710;48.024;16.296;2023-04-03T14:42:22;7.10;61.30
4693;DHT22;11710;48.024;16.296;2023-04-03T14:44:52;7.00;62.00
4693;DHT22;11710;48.024;16.296;2023-04-03T14:47:21;7.10;61.40
4693;DHT22;11710;48.024;16.296;2023-04-03T14:49:49;7.10;60.70
4693;DHT22;11710;48.024;16.296;2023-04-03T14:52:20;7.10;61.30
4693;DHT22;11710;48.024;16.296;2023-04-03T14:54:48;7.10;61.30
4693;DHT22;11710;48.024;16.296;2023-04-03T14:57:16;7.00;61.30
4693;DHT22;11710;48.024;16.296;2023-04-03T14:59:43;7.00;62.40
4693;DHT22;11710;48.024;16.296;2023-04-03T15:02:26;6.90;62.10
4693;DHT22;11710;48.024;16.296;2023-04-03T15:04:54;6.80;61.60
4693;DHT22;11710;48.024;16.296;2023-04-03T15:07:22;6.60;61.40
4693;DHT22;11710;48.024;16.296;2023-04-03T15:09:50;6.50;62.00
4693;DHT22;11710;48.024;16.296;2023-04-03T15:12:17;6.40;62.70
4693;DHT22;11710;48.024;16.296;2023-04-03T15:14:44;6.40;63.40
4693;DHT22;11710;48.024;16.296;2023-04-03T15:17:17;6.40;64.00
4693;DHT22;11710;48.024;16.296;2023-04-03T15:19:47;6.40;64.50
4693;DHT22;11710;48.024;16.296;2023-04-03T15:22:16;6.50;64.40
4693;DHT22;11710;48.024;16.296;2023-04-03T15:24:44;6.60;63.90
4693;DHT22;11710;48.024;16.296;2023-04-03T15:27:13;6.60;63.40
4693;DHT22;11710;48.024;16.296;2023-04-03T15:29:42;6.60;63.70
4693;DHT22;11710;48.024;16.296;2023-04-03T15:32:10;6.60;63.60
4693;DHT22;11710;48.024;16.296;2023-04-03T15:34:39;6.40;61.10
4693;DHT22;11710;48.024;16.296;2023-04-03T15:37:07;6.20;61.40
4693;DHT22;11710;48.024;16.296;2023-04-03T15:39:34;6.10;61.90
4693;DHT22;11710;48.024;16.296;2023-04-03T15:42:01;6.10;62.50
4693;DHT22;11710;48.024;16.296;2023-04-03T15:44:33;6.10;62.90
4693;DHT22;11710;48.024;16.296;2023-04-03T15:47:01;6.20;64.10
4693;DHT22;11710;48.024;16.296;2023-04-03T15:49:30;6.40;64.90
4693;DHT22;11710;48.024;16.296;2023-04-03T15:51:59;6.60;65.20
4693;DHT22;11710;48.024;16.296;2023-04-03T15:54:27;6.60;63.50
4693;DHT22;11710;48.024;16.296;2023-04-03T15:56:55;6.70;62.00
4693;DHT22;11710;48.024;16.296;2023-04-03T15:59:22;6.70;61.50
4693;DHT22;11710;48.024;16.296;2023-04-03T16:01:50;6.60;61.60
4693;DHT22;11710;48.024;16.296;2023-04-03T16:04:19;6.60;62.00
4693;DHT22;11710;48.024;16.296;2023-04-03T16:06:47;6.50;61.90
4693;DHT22;11710;48.024;16.296;2023-04-03T16:09:16;6.40;61.80
4693;DHT22;11710;48.024;16.296;2023-04-03T16:11:43;6.20;61.90
4693;DHT22;11710;48.024;16.296;2023-04-03T16:14:12;6.10;61.90
4693;DHT22;11710;48.024;16.296;2023-04-03T16:16:40;6.00;61.90
4693;DHT22;11710;48.024;16.296;2023-04-03T16:19:09;5.80;60.90
4693;DHT22;11710;48.024;16.296;2023-04-03T16:21:36;5.70;60.40
4693;DHT22;11710;48.024;16.296;2023-04-03T16:24:03;5.70;62.00
4693;DHT22;11710;48.024;16.296;2023-04-03T16:26:32;5.70;61.40
4693;DHT22;11710;48.024;16.296;2023-04-03T16:29:00;5.60;61.60
4693;DHT22;11710;48.024;16.296;2023-04-03T16:31:27;5.50;62.10
4693;DHT22;11710;48.024;16.296;2023-04-03T16:33:55;5.50;61.90
4693;DHT22;11710;48.024;16.296;2023-04-03T16:36:23;5.40;61.30
4693;DHT22;11710;48.024;16.296;2023-04-03T16:38:51;5.40;62.20
4693;DHT22;11710;48.024;16.296;2023-04-03T16:41:18;5.40;61.50
4693;DHT22;11710;48.024;16.296;2023-04-03T16:43:46;5.40;60.20
4693;DHT22;11710;48.024;16.296;2023-04-03T16:46:13;5.30;59.70
4693;DHT22;11710;48.024;16.296;2023-04-03T16:48:40;5.20;59.80
4693;DHT22;11710;48.024;16.296;2023-04-03T16:51:08;5.20;60.60
4693;DHT22;11710;48.024;16.296;2023-04-03T16:53:35;5.10;61.00
4693;DHT22;11710;48.024;16.296;2023-04-03T16:56:02;5.10;61.40
4693;DHT22;11710;48.024;16.296;2023-04-03T16:58:29;5.10;61.90
4693;DHT22;11710;48.024;16.296;2023-04-03T17:00:58;5.10;62.40
4693;DHT22;11710;48.024;16.296;2023-04-03T17:03:25;5.10;62.80
4693;DHT22;11710;48.024;16.296;2023-04-03T17:05:53;5.10;62.90
4693;DHT22;11710;48.024;16.296;2023-04-03T17:08:21;5.00;62.90
4693;DHT22;11710;48.024;16.296;2023-04-03T17:10:48;5.10;62.10
4693;DHT22;11710;48.024;16.296;2023-04-03T17:13:17;5.00;62.10
4693;DHT22;11710;48.024;16.296;2023-04-03T17:15:44;5.00;62.70
4693;DHT22;11710;48.024;16.296;2023-04-03T17:18:13;5.00;63.00
4693;DHT22;11710;48.024;16.296;2023-04-03T17:20:40;4.90;62.90
4693;DHT22;11710;48.024;16.296;2023-04-03T17:23:08;4.90;61.90
4693;DHT22;11710;48.024;16.296;2023-04-03T17:25:35;4.90;61.90
4693;DHT22;11710;48.024;16.296;2023-04-03T17:28:02;4.80;62.40
4693;DHT22;11710;48.024;16.296;2023-04-03T17:30:29;4.80;63.00
4693;DHT22;11710;48.024;16.296;2023-04-03T17:32:57;4.80;63.20
4693;DHT22;11710;48.024;16.296;2023-04-03T17:35:25;4.80;63.30
4693;DHT22;11710;48.024;16.296;2023-04-03T17:37:52;4.70;62.40
4693;DHT22;11710;48.024;16.296;2023-04-03T17:40:20;4.70;62.30
4693;DHT22;11710;48.024;16.296;2023-04-03T17:42:47;4.60;62.20
4693;DHT22;11710;48.024;16.296;2023-04-03T17:45:15;4.70;62.50
4693;DHT22;11710;48.024;16.296;2023-04-03T17:47:42;4.70;63.00
4693;DHT22;11710;48.024;16.296;2023-04-03T17:50:11;4.60;63.00
4693;DHT22;11710;48.024;16.296;2023-04-03T17:52:42;4.60;63.30
4693;DHT22;11710;48.024;16.296;2023-04-03T17:55:09;4.60;64.20
4693;DHT22;11710;48.024;16.296;2023-04-03T17:57:37;4.60;63.50
4693;DHT22;11710;48.024;16.296;2023-04-03T18:00:06;4.60;63.60
4693;DHT22;11710;48.024;16.296;2023-04-03T18:02:34;4.60;64.00
4693;DHT22;11710;48.024;16.296;2023-04-03T18:05:01;4.50;63.60
4693;DHT22;11710;48.024;16.296;2023-04-03T18:07:28;4.50;63.80
4693;DHT22;11710;48.024;16.296;2023-04-03T18:09:58;4.50;63.50
4693;DHT22;11710;48.024;16.296;2023-04-03T18:12:25;4.50;63.70
4693;DHT22;11710;48.024;16.296;2023-04-03T18:14:53;4.50;63.90
4693;DHT22;11710;48.024;16.296;2023-04-03T18:17:20;4.40;64.00
4693;DHT22;11710;48.024;16.296;2023-04-03T18:19:47;4.40;64.10
4693;DHT22;11710;48.024;16.296;2023-04-03T18:22:18;4.50;64.00
4693;DHT22;11710;48.024;16.296;2023-04-03T18:24:47;4.40;63.90
4693;DHT22;11710;48.024;16.296;2023-04-03T18:27:19;4.40;64.30
4693;DHT22;11710;48.024;16.296;2023-04-03T18:29:49;4.40;64.30
4693;DHT22;11710;48.024;16.296;2023-04-03T18:32:19;4.40;64.30
4693;DHT22;11710;48.024;16.296;2023-04-03T18:34:47;4.40;64.30
4693;DHT22;11710;48.024;16.296;2023-04-03T18:37:14;4.40;64.50
4693;DHT22;11710;48.024;16.296;2023-04-03T18:39:42;4.40;64.70
4693;DHT22;11710;48.024;16.296;2023-04-03T18:42:11;4.40;64.40
4693;DHT22;11710;48.024;16.296;2023-04-03T18:44:43;4.40;64.50
4693;DHT22;11710;48.024;16.296;2023-04-03T18:47:12;4.40;63.90
4693;DHT22;11710;48.024;16.296;2023-04-03T18:49:40;4.40;64.10
4693;DHT22;11710;48.024;16.296;2023-04-03T18:52:09;4.30;64.10
4693;DHT22;11710;48.024;16.296;2023-04-03T18:54:38;4.40;64.30
4693;DHT22;11710;48.024;16.296;2023-04-03T18:57:07;4.30;64.20
4693;DHT22;11710;48.024;16.296;2023-04-03T18:59:34;4.30;64.20
4693;DHT22;11710;48.024;16.296;2023-04-03T19:02:03;4.30;64.20
4693;DHT22;11710;48.024;16.296;2023-04-03T19:04:31;4.30;64.30
4693;DHT22;11710;48.024;16.296;2023-04-03T19:06:58;4.20;64.60
